Time;durP1;ratioP1;P1;durP2;ratioP2;P2;SDS_P1;SDS_P2;PMS_P1;PMS_P2;Temp;Humidity;BMP_temperature;BMP_pressure;BME280_temperature;BME280_humidity;BME280_pressure;Samples;Min_cycle;Max_cycle;Signal;HPM_P1;HPM_P2
2024/01/31 00:00:35;;;;;;;6.43;1.60;;;5.40;99.90;;;;;;4926499;29;20083;-81
2024/01/31 00:03:01;;;;;;;4.57;1.83;;;5.40;99.90;;;;;;4903944;29;20062;-82
2024/01/31 00:05:26;;;;;;;5.47;1.63;;;5.40;99.90;;;;;;4892681;29;20044;-82
2024/01/31 00:07:52;;;;;;;5.97;1.52;;;5.40;99.90;;;;;;4904176;29;20051;-83
2024/01/31 00:10:18;;;;;;;7.70;1.42;;;5.40;99.90;;;;;;4918020;29;20044;-82
2024/01/31 00:12:43;;;;;;;6.63;1.65;;;5.30;99.90;;;;;;4917534;29;20065;-82
2024/01/31 00:15:09;;;;;;;9.20;1.80;;;5.30;99.90;;;;;;4917651;29;20079;-82
2024/01/31 00:17:34;;;;;;;7.57;1.65;;;5.30;99.90;;;;;;4913477;29;20040;-82
2024/01/31 00:20:00;;;;;;;4.50;1.25;;;5.20;99.90;;;;;;4897874;29;20127;-82
2024/01/31 00:22:26;;;;;;;7.30;1.80;;;5.10;99.90;;;;;;4897271;29;20080;-82
2024/01/31 00:24:51;;;;;;;9.45;1.52;;;5.10;99.90;;;;;;4898667;29;20532;-82
2024/01/31 00:27:17;;;;;;;8.63;1.73;;;5.10;99.90;;;;;;4914857;29;20541;-83
2024/01/31 00:29:43;;;;;;;5.30;1.80;;;5.10;99.90;;;;;;4894475;29;20452;-82
2024/01/31 00:32:17;;;;;;;6.45;1.50;;;5.10;99.90;;;;;;5118580;27;20406;-45
2024/01/31 00:34:43;;;;;;;5.55;1.63;;;5.10;99.90;;;;;;5103767;28;20044;-44
2024/01/31 00:37:08;;;;;;;8.23;1.90;;;5.10;99.90;;;;;;5106213;28;20499;-45
2024/01/31 00:39:34;;;;;;;5.65;1.42;;;5.10;99.90;;;;;;5082825;28;20032;-44
2024/01/31 00:42:00;;;;;;;10.45;1.70;;;5.20;99.90;;;;;;5082477;28;20508;-44
2024/01/31 00:44:26;;;;;;;8.30;1.65;;;5.20;99.90;;;;;;5085478;28;20046;-44
2024/01/31 00:46:52;;;;;;;7.20;1.58;;;5.20;99.90;;;;;;5087008;28;20462;-44
2024/01/31 00:49:17;;;;;;;4.30;1.20;;;5.20;99.90;;;;;;5081899;28;20044;-44
2024/01/31 00:51:44;;;;;;;5.25;1.50;;;5.20;99.90;;;;;;5084480;28;20047;-44
2024/01/31 00:54:12;;;;;;;6.07;1.30;;;5.20;99.90;;;;;;5085895;28;20051;-44
2024/01/31 00:56:38;;;;;;;8.73;1.67;;;5.20;99.90;;;;;;5089208;28;20044;-45
2024/01/31 00:59:04;;;;;;;4.13;1.30;;;5.20;99.90;;;;;;5072773;28;20051;-46
2024/01/31 01:01:30;;;;;;;8.18;1.40;;;5.20;99.90;;;;;;5090972;28;20040;-46
2024/01/31 01:03:56;;;;;;;8.32;1.08;;;5.10;99.90;;;;;;5089285;28;20261;-45
2024/01/31 01:06:21;;;;;;;7.03;1.30;;;5.10;99.90;;;;;;5089328;28;20044;-47
2024/01/31 01:08:47;;;;;;;4.07;1.20;;;5.10;99.90;;;;;;5088966;28;20119;-44
2024/01/31 01:11:12;;;;;;;4.57;1.05;;;5.10;99.90;;;;;;5089338;28;20066;-45
2024/01/31 01:13:38;;;;;;;6.03;1.50;;;5.10;99.90;;;;;;5089590;28;20041;-45
2024/01/31 01:16:04;;;;;;;5.70;1.20;;;5.10;99.90;;;;;;5088751;28;20044;-45
2024/01/31 01:18:29;;;;;;;6.38;1.30;;;5.10;99.90;;;;;;5088601;28;20078;-44
2024/01/31 01:20:55;;;;;;;4.65;1.50;;;5.10;99.90;;;;;;5087667;28;20102;-45
2024/01/31 01:23:21;;;;;;;8.18;1.65;;;5.10;99.90;;;;;;5088882;28;20055;-44
2024/01/31 01:25:46;;;;;;;9.30;1.90;;;5.10;99.90;;;;;;5089098;28;20044;-45
2024/01/31 01:28:12;;;;;;;6.40;2.00;;;5.10;99.90;;;;;;5089219;28;20037;-44
2024/01/31 01:30:37;;;;;;;7.85;2.05;;;5.10;99.90;;;;;;5070658;28;20067;-45
2024/01/31 01:33:03;;;;;;;5.82;2.03;;;5.10;99.90;;;;;;5088814;28;20075;-46
2024/01/31 01:35:29;;;;;;;5.45;1.58;;;5.10;99.90;;;;;;5069644;28;20383;-44
2024/01/31 01:37:54;;;;;;;6.60;1.88;;;5.10;99.90;;;;;;5087453;28;20085;-44
2024/01/31 01:40:20;;;;;;;4.20;1.73;;;5.00;99.90;;;;;;5088172;28;20044;-45
2024/01/31 01:42:46;;;;;;;7.03;1.73;;;5.00;99.90;;;;;;5060047;28;20048;-45
2024/01/31 01:45:11;;;;;;;7.38;1.40;;;4.90;99.90;;;;;;5073743;28;20109;-45
2024/01/31 01:47:39;;;;;;;4.60;1.20;;;4.90;99.90;;;;;;5073870;28;20049;-44
2024/01/31 01:50:05;;;;;;;6.97;1.42;;;4.90;99.90;;;;;;5082374;28;20497;-45
2024/01/31 01:52:32;;;;;;;2.90;0.82;;;4.80;99.90;;;;;;5070771;28;20032;-44
2024/01/31 01:55:02;;;;;;;5.00;1.13;;;4.80;99.90;;;;;;5070425;28;20646;-45
2024/01/31 01:57:28;;;;;;;2.75;1.02;;;4.70;99.90;;;;;;5063369;28;20052;-45
2024/01/31 01:59:54;;;;;;;4.63;1.17;;;4.70;99.90;;;;;;5046891;28;20043;-44
2024/01/31 02:02:20;;;;;;;6.55;1.08;;;4.70;99.90;;;;;;5066074;28;20044;-45
2024/01/31 02:04:48;;;;;;;3.05;1.13;;;4.60;99.90;;;;;;5065796;28;20082;-45
2024/01/31 02:07:14;;;;;;;5.20;1.00;;;4.60;99.90;;;;;;5070525;28;20049;-45
2024/01/31 02:09:40;;;;;;;1.67;1.00;;;4.60;99.90;;;;;;5067366;28;20040;-45
2024/01/31 02:12:06;;;;;;;7.13;1.20;;;4.60;99.90;;;;;;5065676;28;20947;-44
2024/01/31 02:14:31;;;;;;;8.20;1.50;;;4.70;99.90;;;;;;5064670;28;20167;-44
2024/01/31 02:16:57;;;;;;;11.00;1.65;;;4.70;99.90;;;;;;5064514;28;20123;-45
2024/01/31 02:19:23;;;;;;;3.45;1.40;;;4.70;99.90;;;;;;5065453;28;20482;-44
2024/01/31 02:21:51;;;;;;;7.68;1.70;;;4.80;99.90;;;;;;5066189;28;20047;-45
2024/01/31 02:24:16;;;;;;;9.20;1.67;;;4.80;99.90;;;;;;5068092;28;20041;-44
2024/01/31 02:26:42;;;;;;;5.20;1.63;;;4.80;99.90;;;;;;5069477;28;20037;-44
2024/01/31 02:29:08;;;;;;;5.15;1.65;;;4.90;99.90;;;;;;5066113;28;20094;-44
2024/01/31 02:31:33;;;;;;;7.40;1.70;;;4.90;99.90;;;;;;5065197;28;20128;-44
2024/01/31 02:33:59;;;;;;;6.68;1.60;;;4.90;99.90;;;;;;5065849;28;20036;-45
2024/01/31 02:36:24;;;;;;;4.53;1.60;;;4.90;99.90;;;;;;5066377;28;20032;-44
2024/01/31 02:38:50;;;;;;;5.57;1.60;;;4.90;99.90;;;;;;5064261;28;20072;-45
2024/01/31 02:41:16;;;;;;;5.47;1.80;;;4.90;99.90;;;;;;5068886;28;20072;-44
2024/01/31 02:43:42;;;;;;;4.32;2.00;;;4.90;99.90;;;;;;5063755;28;20049;-45
2024/01/31 02:46:07;;;;;;;4.88;1.30;;;4.80;99.90;;;;;;5065649;28;20507;-44
2024/01/31 02:48:33;;;;;;;6.18;1.88;;;4.90;99.90;;;;;;5065292;28;20500;-45
2024/01/31 02:50:59;;;;;;;5.03;1.60;;;4.90;99.90;;;;;;5065714;28;20040;-45
2024/01/31 02:53:24;;;;;;;6.05;1.60;;;4.90;99.90;;;;;;5065080;28;20075;-46
2024/01/31 02:55:50;;;;;;;5.65;1.70;;;4.90;99.90;;;;;;5047770;28;20119;-45
2024/01/31 02:58:15;;;;;;;6.75;1.80;;;4.90;99.90;;;;;;5065276;28;20037;-45
2024/01/31 03:00:41;;;;;;;4.22;1.27;;;4.80;99.90;;;;;;5065456;28;20040;-44
2024/01/31 03:03:06;;;;;;;6.50;1.70;;;4.90;99.90;;;;;;5065658;28;20455;-45
2024/01/31 03:05:32;;;;;;;2.85;1.40;;;4.80;99.90;;;;;;5065387;28;20032;-45
2024/01/31 03:07:58;;;;;;;7.28;1.63;;;4.80;99.90;;;;;;5069882;28;20462;-47
2024/01/31 03:10:23;;;;;;;4.68;1.35;;;4.80;99.90;;;;;;5065097;28;20033;-45
2024/01/31 03:12:49;;;;;;;6.32;1.20;;;4.80;99.90;;;;;;5064202;28;20120;-45
2024/01/31 03:15:14;;;;;;;4.78;1.38;;;4.80;99.90;;;;;;5046907;28;20711;-45
2024/01/31 03:17:40;;;;;;;4.47;1.27;;;4.80;99.90;;;;;;5065186;28;20046;-44
2024/01/31 03:20:06;;;;;;;4.97;1.58;;;4.80;99.90;;;;;;5066681;28;20036;-46
2024/01/31 03:22:34;;;;;;;3.88;1.10;;;4.80;99.90;;;;;;5047503;28;20044;-45
2024/01/31 03:24:59;;;;;;;3.17;1.00;;;4.80;99.90;;;;;;5062483;28;20068;-45
2024/01/31 03:27:25;;;;;;;2.83;1.10;;;4.80;99.90;;;;;;5064011;28;20153;-47
2024/01/31 03:29:50;;;;;;;4.82;1.42;;;4.80;99.90;;;;;;5068037;28;20134;-46
2024/01/31 03:32:16;;;;;;;5.50;0.98;;;4.80;99.90;;;;;;5048785;28;20064;-45
2024/01/31 03:34:42;;;;;;;2.85;0.80;;;4.80;99.90;;;;;;5064437;28;21599;-45
2024/01/31 03:37:07;;;;;;;2.78;0.90;;;4.80;99.90;;;;;;5047099;28;20106;-45
2024/01/31 03:39:33;;;;;;;2.65;0.98;;;4.80;99.90;;;;;;5062576;28;20478;-46
2024/01/31 03:41:59;;;;;;;2.78;1.08;;;4.80;99.90;;;;;;5063911;28;20401;-45
2024/01/31 03:44:25;;;;;;;3.13;0.98;;;4.80;99.90;;;;;;5066757;28;20435;-45
2024/01/31 03:46:50;;;;;;;4.32;1.15;;;4.80;99.90;;;;;;5067584;28;20165;-45
2024/01/31 03:49:16;;;;;;;3.30;1.00;;;4.70;99.90;;;;;;5065081;28;20378;-45
2024/01/31 03:51:42;;;;;;;2.78;1.00;;;4.80;99.90;;;;;;5064373;28;20044;-46
2024/01/31 03:54:07;;;;;;;3.75;1.00;;;4.80;99.90;;;;;;5064825;28;20044;-46
2024/01/31 03:56:33;;;;;;;3.42;1.10;;;4.80;99.90;;;;;;5064623;28;20032;-46
2024/01/31 03:58:58;;;;;;;4.28;1.63;;;4.80;99.90;;;;;;5064507;28;20037;-45
2024/01/31 04:01:24;;;;;;;3.05;1.10;;;4.80;99.90;;;;;;5063352;28;20045;-44
2024/01/31 04:03:50;;;;;;;4.32;1.38;;;4.80;99.90;;;;;;5063851;28;20044;-45
2024/01/31 04:06:16;;;;;;;4.03;1.48;;;4.80;99.90;;;;;;5063926;28;20040;-46
2024/01/31 04:08:42;;;;;;;3.22;1.10;;;4.70;99.90;;;;;;5064426;28;20146;-45
2024/01/31 04:11:08;;;;;;;6.47;1.55;;;4.70;99.90;;;;;;5047004;28;20461;-45
2024/01/31 04:13:33;;;;;;;4.25;1.30;;;4.70;99.90;;;;;;5064059;28;20056;-44
2024/01/31 04:15:59;;;;;;;3.15;1.30;;;4.80;99.90;;;;;;5066646;28;20036;-49
2024/01/31 04:18:24;;;;;;;5.18;1.45;;;4.70;99.90;;;;;;5065395;28;20543;-46
2024/01/31 04:20:50;;;;;;;3.78;1.40;;;4.70;99.90;;;;;;5065262;28;20117;-46
2024/01/31 04:23:16;;;;;;;3.70;1.33;;;4.70;99.90;;;;;;5068577;28;20043;-45
2024/01/31 04:25:42;;;;;;;6.10;1.50;;;4.70;99.90;;;;;;5067438;28;20040;-46
2024/01/31 04:28:07;;;;;;;4.78;1.45;;;4.70;99.90;;;;;;5049929;28;20144;-49
2024/01/31 04:30:33;;;;;;;3.35;1.20;;;4.70;99.90;;;;;;5067242;28;20133;-44
2024/01/31 04:33:02;;;;;;;4.72;1.40;;;4.70;99.90;;;;;;5068096;28;20478;-45
2024/01/31 04:35:28;;;;;;;4.43;1.45;;;4.70;99.90;;;;;;5067721;28;20090;-45
2024/01/31 04:37:54;;;;;;;5.07;1.40;;;4.70;99.90;;;;;;5065994;28;20044;-45
2024/01/31 04:40:19;;;;;;;6.43;1.50;;;4.70;99.90;;;;;;5068748;28;20040;-45
2024/01/31 04:42:47;;;;;;;4.63;1.50;;;4.70;99.90;;;;;;5069079;28;20036;-45
2024/01/31 04:45:13;;;;;;;3.83;1.30;;;4.70;99.90;;;;;;5067218;28;20052;-45
2024/01/31 04:47:41;;;;;;;5.18;1.40;;;4.70;99.90;;;;;;5068751;28;20650;-45
2024/01/31 04:50:07;;;;;;;4.43;1.70;;;4.80;99.90;;;;;;5065762;28;20052;-44
2024/01/31 04:52:33;;;;;;;5.45;1.40;;;4.70;99.90;;;;;;5067321;28;20037;-47
2024/01/31 04:54:58;;;;;;;6.00;1.85;;;4.70;99.90;;;;;;5068836;28;20040;-46
2024/01/31 04:57:24;;;;;;;6.60;1.58;;;4.70;99.90;;;;;;5048467;28;20079;-45
2024/01/31 04:59:50;;;;;;;7.45;1.55;;;4.80;99.90;;;;;;5068213;28;20099;-45
2024/01/31 05:02:15;;;;;;;4.95;1.65;;;4.70;99.90;;;;;;5066652;28;20579;-46
2024/01/31 05:04:41;;;;;;;7.13;1.50;;;4.80;99.90;;;;;;5068584;28;20032;-45
2024/01/31 05:07:07;;;;;;;3.78;1.55;;;4.80;99.90;;;;;;5067957;28;20048;-46
2024/01/31 05:09:32;;;;;;;5.32;1.83;;;4.80;99.90;;;;;;5064703;28;20482;-46
2024/01/31 05:11:58;;;;;;;6.60;1.75;;;4.80;99.90;;;;;;5064244;28;20033;-46
2024/01/31 05:14:24;;;;;;;7.57;2.03;;;4.80;99.90;;;;;;5072069;28;20040;-46
2024/01/31 05:16:49;;;;;;;4.82;1.67;;;4.80;99.90;;;;;;5066770;28;21087;-45
2024/01/31 05:19:15;;;;;;;6.18;1.80;;;4.80;99.90;;;;;;5071760;28;20036;-44
2024/01/31 05:21:59;;;;;;;4.53;1.60;;;4.80;99.90;;;;;;5070302;28;20482;-46
2024/01/31 05:24:24;;;;;;;6.38;1.67;;;4.80;99.90;;;;;;5071304;28;20485;-45
2024/01/31 05:26:50;;;;;;;5.00;1.35;;;4.80;99.90;;;;;;5073024;28;20039;-46
2024/01/31 05:29:15;;;;;;;4.78;1.63;;;4.80;99.90;;;;;;5068000;28;20033;-45
2024/01/31 05:31:42;;;;;;;6.47;1.60;;;4.80;99.90;;;;;;5066997;28;20135;-45
2024/01/31 05:34:08;;;;;;;3.42;1.58;;;4.80;99.90;;;;;;5067781;28;20066;-45
2024/01/31 05:36:33;;;;;;;7.43;1.75;;;4.80;99.90;;;;;;5071792;28;20033;-44
2024/01/31 05:38:59;;;;;;;4.25;1.63;;;4.80;99.90;;;;;;5066916;28;20110;-45
2024/01/31 05:41:25;;;;;;;5.57;2.10;;;4.80;99.90;;;;;;5049365;28;20044;-45
2024/01/31 05:43:51;;;;;;;5.03;1.52;;;4.80;99.90;;;;;;5068461;28;20054;-45
2024/01/31 05:46:17;;;;;;;6.63;1.77;;;4.80;99.90;;;;;;5067128;28;20048;-45
2024/01/31 05:48:45;;;;;;;4.72;2.03;;;4.80;99.90;;;;;;5048204;28;20048;-45
2024/01/31 05:51:11;;;;;;;4.90;1.90;;;4.80;99.90;;;;;;5067531;28;20040;-46
2024/01/31 05:53:36;;;;;;;3.97;1.75;;;4.80;99.90;;;;;;5065660;28;20090;-46
2024/01/31 05:56:02;;;;;;;3.30;2.08;;;4.80;99.90;;;;;;5066315;28;20086;-46
2024/01/31 05:58:29;;;;;;;5.45;1.80;;;4.80;99.90;;;;;;5067081;28;20052;-46
2024/01/31 06:00:54;;;;;;;8.70;2.10;;;4.90;99.90;;;;;;5066335;28;20040;-45
2024/01/31 06:03:22;;;;;;;5.32;2.00;;;4.80;99.90;;;;;;5067240;28;20037;-45
2024/01/31 06:05:48;;;;;;;10.13;2.58;;;4.80;99.90;;;;;;5066139;28;20052;-46
2024/01/31 06:08:14;;;;;;;5.00;2.40;;;4.80;99.90;;;;;;5066439;28;20045;-46
2024/01/31 06:10:39;;;;;;;5.53;2.13;;;4.80;99.90;;;;;;5068696;28;20051;-45
2024/01/31 06:13:05;;;;;;;7.07;2.08;;;4.80;99.90;;;;;;5049648;28;20037;-47
2024/01/31 06:15:31;;;;;;;3.45;1.90;;;4.80;99.90;;;;;;5066191;28;20045;-45
2024/01/31 06:17:56;;;;;;;6.78;2.10;;;4.80;99.90;;;;;;5067694;28;20051;-45
2024/01/31 06:20:22;;;;;;;10.27;2.58;;;4.80;99.90;;;;;;5068841;28;20036;-48
2024/01/31 06:22:47;;;;;;;4.72;2.17;;;4.80;99.90;;;;;;5066323;28;20033;-46
2024/01/31 06:25:13;;;;;;;4.93;2.60;;;4.80;99.90;;;;;;5066216;28;20052;-46
2024/01/31 06:27:39;;;;;;;5.07;2.53;;;4.80;99.90;;;;;;5066576;28;20040;-44
2024/01/31 06:30:05;;;;;;;5.85;2.00;;;4.80;99.90;;;;;;5052240;28;20044;-45
2024/01/31 06:32:37;;;;;;;4.55;2.40;;;4.80;99.90;;;;;;5051322;28;20432;-46
2024/01/31 06:35:03;;;;;;;6.93;2.35;;;4.80;99.90;;;;;;5068424;28;20049;-45
2024/01/31 06:37:29;;;;;;;5.78;2.45;;;4.80;99.90;;;;;;5066071;28;20068;-46
2024/01/31 06:39:55;;;;;;;4.10;2.38;;;4.80;99.90;;;;;;5047166;28;20075;-45
2024/01/31 06:42:21;;;;;;;7.35;2.47;;;4.80;99.90;;;;;;5066976;28;20491;-47
2024/01/31 06:44:46;;;;;;;9.15;2.92;;;4.80;99.90;;;;;;5048242;28;20409;-45
2024/01/31 06:47:12;;;;;;;5.20;2.40;;;4.80;99.90;;;;;;5071984;28;20039;-45
2024/01/31 06:49:38;;;;;;;4.85;2.45;;;4.80;99.90;;;;;;5070433;28;20032;-45
2024/01/31 06:52:06;;;;;;;4.15;2.45;;;4.80;99.90;;;;;;5066216;28;20041;-45
2024/01/31 06:54:31;;;;;;;4.30;2.30;;;4.80;99.90;;;;;;5064642;28;20044;-45
2024/01/31 06:56:57;;;;;;;12.57;2.80;;;4.80;99.90;;;;;;5066007;28;20489;-45
2024/01/31 06:59:23;;;;;;;5.03;2.60;;;4.80;99.90;;;;;;5065469;28;20395;-46
2024/01/31 07:01:48;;;;;;;11.23;2.53;;;4.80;99.90;;;;;;5064229;28;20737;-45
2024/01/31 07:04:14;;;;;;;9.05;2.97;;;4.80;99.90;;;;;;5068693;28;20123;-46
2024/01/31 07:06:40;;;;;;;4.25;1.92;;;4.80;99.90;;;;;;5065904;28;20036;-45
2024/01/31 07:09:05;;;;;;;6.32;1.75;;;4.80;99.90;;;;;;5065134;28;20043;-45
2024/01/31 07:11:31;;;;;;;7.22;2.67;;;4.70;99.90;;;;;;5046057;28;20043;-46
2024/01/31 07:13:56;;;;;;;6.82;2.40;;;4.80;99.90;;;;;;5066019;28;20044;-47
2024/01/31 07:16:22;;;;;;;4.72;2.45;;;4.80;99.90;;;;;;5044938;28;20051;-45
2024/01/31 07:18:48;;;;;;;4.25;2.30;;;4.80;99.90;;;;;;5064878;28;20045;-45
2024/01/31 07:21:24;;;;;;;4.70;2.80;;;4.80;99.90;;;;;;5064966;28;20486;-46
2024/01/31 07:23:51;;;;;;;3.85;2.55;;;4.80;99.90;;;;;;5064400;28;20048;-47
2024/01/31 07:26:25;;;;;;;4.75;3.10;;;4.80;99.90;;;;;;5063529;28;20162;-46
2024/01/31 07:28:51;;;;;;;4.63;3.30;;;4.80;99.90;;;;;;5063528;28;20044;-49
2024/01/31 07:31:17;;;;;;;7.65;3.50;;;4.80;99.90;;;;;;5060631;28;20052;-45
2024/01/31 07:33:43;;;;;;;12.73;4.38;;;4.80;99.90;;;;;;5063349;28;20415;-46
2024/01/31 07:36:08;;;;;;;8.73;4.85;;;4.80;99.90;;;;;;5068418;28;20119;-45
2024/01/31 07:38:34;;;;;;;9.70;5.07;;;4.80;99.90;;;;;;5065608;28;20060;-45
2024/01/31 07:41:00;;;;;;;7.22;4.47;;;4.80;99.90;;;;;;5061463;28;20044;-45
2024/01/31 07:43:25;;;;;;;7.47;5.05;;;4.80;99.90;;;;;;5063567;28;20036;-49
2024/01/31 07:45:51;;;;;;;8.63;5.13;;;4.90;99.90;;;;;;5066235;28;20044;-47
2024/01/31 07:48:17;;;;;;;8.38;5.40;;;4.90;99.90;;;;;;5072569;28;20498;-48
2024/01/31 07:50:43;;;;;;;9.02;5.20;;;4.80;99.90;;;;;;5068835;28;20041;-47
2024/01/31 07:53:08;;;;;;;8.13;5.15;;;4.80;99.90;;;;;;5045662;28;20655;-48
2024/01/31 07:55:34;;;;;;;8.73;5.50;;;4.80;99.90;;;;;;5063271;28;20366;-45
2024/01/31 07:58:00;;;;;;;8.38;4.88;;;4.90;99.90;;;;;;5063996;28;20443;-46
2024/01/31 08:00:27;;;;;;;10.05;4.85;;;4.80;99.90;;;;;;5065010;28;20037;-49
2024/01/31 08:02:52;;;;;;;10.00;5.00;;;4.90;99.90;;;;;;5063886;28;20131;-47
2024/01/31 08:05:18;;;;;;;16.52;5.95;;;4.90;99.90;;;;;;5064424;28;20115;-45
2024/01/31 08:07:46;;;;;;;17.52;5.10;;;4.90;99.90;;;;;;5063210;28;20037;-44
2024/01/31 08:10:13;;;;;;;10.38;5.80;;;4.90;99.90;;;;;;5062688;28;20037;-45
2024/01/31 08:12:41;;;;;;;14.88;5.50;;;4.90;99.90;;;;;;5062062;28;20036;-45
2024/01/31 08:15:07;;;;;;;8.20;5.13;;;4.90;99.90;;;;;;5044610;28;20137;-44
2024/01/31 08:17:32;;;;;;;8.10;5.25;;;5.00;99.90;;;;;;5045167;28;20041;-46
2024/01/31 08:19:58;;;;;;;7.90;5.35;;;5.00;99.90;;;;;;5062398;28;20028;-45
2024/01/31 08:22:24;;;;;;;7.18;5.22;;;5.00;99.90;;;;;;5063807;28;20059;-45
2024/01/31 08:24:49;;;;;;;10.95;5.45;;;5.00;99.90;;;;;;5062535;28;20040;-45
2024/01/31 08:27:17;;;;;;;8.80;5.00;;;5.00;99.90;;;;;;5063221;28;20028;-45
2024/01/31 08:29:43;;;;;;;;;;;5.00;99.90;;;;;;5046093;28;20040;-45
2024/01/31 08:32:09;;;;;;;7.78;5.05;;;5.10;99.90;;;;;;5062474;28;20370;-46
2024/01/31 08:34:35;;;;;;;7.10;4.88;;;5.10;99.90;;;;;;5063324;28;20040;-45
2024/01/31 08:37:01;;;;;;;10.88;5.07;;;5.10;99.90;;;;;;5043973;28;20067;-46
2024/01/31 08:39:28;;;;;;;6.30;4.72;;;5.10;99.90;;;;;;5066118;28;20044;-45
2024/01/31 08:41:55;;;;;;;8.48;4.70;;;5.20;99.90;;;;;;5063234;28;20052;-45
2024/01/31 08:44:21;;;;;;;7.03;4.10;;;5.20;99.90;;;;;;5065674;28;20106;-45
2024/01/31 08:46:47;;;;;;;5.78;3.72;;;5.20;99.90;;;;;;5065853;28;20044;-45
2024/01/31 08:49:12;;;;;;;7.85;4.13;;;5.20;99.90;;;;;;5066734;28;20370;-46
2024/01/31 08:51:38;;;;;;;7.72;4.45;;;5.30;99.90;;;;;;5065203;28;20766;-45
2024/01/31 08:54:05;;;;;;;9.00;4.18;;;5.30;99.90;;;;;;5063542;28;20076;-46
2024/01/31 08:56:31;;;;;;;11.15;4.28;;;5.30;99.90;;;;;;5067407;28;20587;-46
2024/01/31 08:58:57;;;;;;;7.70;4.18;;;5.30;99.90;;;;;;5070426;28;20072;-45
2024/01/31 09:01:22;;;;;;;5.85;4.20;;;5.30;99.90;;;;;;5071154;28;20385;-46
2024/01/31 09:03:49;;;;;;;9.02;4.30;;;5.30;99.90;;;;;;5068956;28;20033;-46
2024/01/31 09:06:15;;;;;;;8.02;4.30;;;5.30;99.90;;;;;;5071499;28;20041;-46
2024/01/31 09:08:40;;;;;;;6.45;3.97;;;5.40;99.90;;;;;;5055396;28;20040;-45
2024/01/31 09:11:06;;;;;;;7.55;4.03;;;5.40;99.90;;;;;;5071297;28;20044;-47
2024/01/31 09:13:32;;;;;;;7.45;4.03;;;5.40;99.90;;;;;;5072404;28;20040;-46
2024/01/31 09:15:57;;;;;;;7.75;4.57;;;5.50;99.90;;;;;;5071907;28;20090;-46
2024/01/31 09:18:23;;;;;;;7.68;4.72;;;5.50;99.90;;;;;;5072760;28;20036;-49
2024/01/31 09:20:48;;;;;;;8.40;4.80;;;5.60;99.90;;;;;;5053970;28;21674;-46
2024/01/31 09:23:14;;;;;;;9.05;5.18;;;5.60;99.90;;;;;;5070920;28;20043;-47
2024/01/31 09:25:40;;;;;;;8.60;4.35;;;5.70;99.90;;;;;;5070298;28;20409;-48
2024/01/31 09:28:05;;;;;;;7.95;4.60;;;5.70;99.90;;;;;;5052049;28;20079;-48
2024/01/31 09:30:31;;;;;;;10.20;4.82;;;5.70;99.90;;;;;;5067725;28;20049;-47
2024/01/31 09:32:57;;;;;;;4.90;4.28;;;5.80;99.90;;;;;;5072244;28;20048;-46
2024/01/31 09:35:22;;;;;;;10.43;3.95;;;5.90;99.90;;;;;;5074151;28;20044;-46
2024/01/31 09:37:48;;;;;;;8.20;4.03;;;5.90;99.90;;;;;;5072832;28;20563;-46
2024/01/31 09:40:15;;;;;;;7.05;4.60;;;5.90;99.90;;;;;;5071408;28;20045;-47
2024/01/31 09:42:45;;;;;;;8.80;4.25;;;6.00;99.90;;;;;;5074053;28;20045;-46
2024/01/31 09:45:14;;;;;;;7.13;4.47;;;6.00;99.90;;;;;;5070841;28;20041;-45
2024/01/31 09:47:43;;;;;;;9.15;4.72;;;6.00;99.90;;;;;;5076900;28;20067;-48
2024/01/31 09:50:09;;;;;;;8.23;4.70;;;6.10;99.90;;;;;;5073729;28;20093;-46
2024/01/31 09:52:35;;;;;;;7.93;4.35;;;6.10;99.90;;;;;;5071025;28;20424;-46
2024/01/31 09:55:04;;;;;;;9.00;5.00;;;6.10;99.90;;;;;;5073424;28;20434;-46
2024/01/31 09:57:30;;;;;;;7.22;4.78;;;6.20;99.90;;;;;;5071784;28;20059;-46
2024/01/31 09:59:57;;;;;;;8.73;4.70;;;6.30;99.90;;;;;;5071869;28;20393;-46
2024/01/31 10:02:23;;;;;;;7.18;4.20;;;6.30;99.90;;;;;;5073031;28;20041;-45
2024/01/31 10:04:49;;;;;;;5.00;4.50;;;6.30;99.90;;;;;;5070779;28;20622;-46
2024/01/31 10:07:28;;;;;;;7.63;4.72;;;6.40;99.90;;;;;;5072278;28;20481;-46
2024/01/31 10:09:54;;;;;;;5.28;4.70;;;6.40;99.90;;;;;;5072194;28;20036;-46
2024/01/31 10:12:20;;;;;;;8.40;5.10;;;6.40;99.90;;;;;;5070933;28;20081;-46
2024/01/31 10:14:48;;;;;;;7.47;4.88;;;6.40;99.90;;;;;;5071310;28;20178;-45
2024/01/31 10:17:14;;;;;;;8.40;4.95;;;6.40;99.90;;;;;;5071419;28;20045;-47
2024/01/31 10:19:40;;;;;;;7.25;4.90;;;6.40;99.90;;;;;;5074464;28;20044;-45
2024/01/31 10:22:06;;;;;;;5.45;4.82;;;6.40;99.90;;;;;;5082160;28;20044;-46
2024/01/31 10:24:32;;;;;;;7.75;5.60;;;6.50;99.90;;;;;;5080398;28;20044;-46
2024/01/31 10:26:58;;;;;;;7.47;5.35;;;6.50;99.90;;;;;;5075735;28;20051;-46
2024/01/31 10:29:24;;;;;;;8.32;5.10;;;6.50;99.90;;;;;;5074763;28;20032;-46
2024/01/31 10:31:52;;;;;;;8.85;5.30;;;6.60;99.90;;;;;;5070601;28;20040;-45
2024/01/31 10:34:18;;;;;;;5.85;5.25;;;6.60;99.90;;;;;;5073433;28;20047;-45
2024/01/31 10:36:44;;;;;;;8.77;5.45;;;6.60;99.90;;;;;;5069310;28;20409;-46
2024/01/31 10:39:10;;;;;;;7.10;5.68;;;6.60;99.90;;;;;;5072065;28;20404;-47
2024/01/31 10:41:35;;;;;;;9.13;5.40;;;6.60;99.90;;;;;;5072015;28;20127;-45
2024/01/31 10:44:05;;;;;;;6.05;5.40;;;6.60;99.90;;;;;;5072211;28;20079;-45
2024/01/31 10:46:31;;;;;;;8.75;6.18;;;6.50;99.90;;;;;;5051599;28;20048;-46
2024/01/31 10:48:56;;;;;;;7.07;6.20;;;6.60;99.90;;;;;;5069101;28;20053;-44
2024/01/31 10:51:23;;;;;;;8.73;6.32;;;6.60;99.90;;;;;;5071159;28;20509;-46
2024/01/31 10:53:52;;;;;;;6.82;6.22;;;6.70;99.90;;;;;;5056160;28;20064;-47
2024/01/31 10:56:20;;;;;;;9.60;6.85;;;6.70;99.90;;;;;;5053750;28;20051;-51
2024/01/31 10:58:47;;;;;;;8.15;6.53;;;6.70;99.90;;;;;;5072196;28;20045;-48
2024/01/31 11:01:14;;;;;;;7.80;6.72;;;6.80;99.90;;;;;;5071504;28;20121;-48
2024/01/31 11:03:46;;;;;;;7.97;7.15;;;6.70;99.90;;;;;;5071376;28;20442;-46
2024/01/31 11:06:12;;;;;;;8.30;6.93;;;6.70;99.90;;;;;;5071973;28;20131;-46
2024/01/31 11:08:41;;;;;;;7.50;6.78;;;6.80;99.90;;;;;;5070305;28;20917;-46
2024/01/31 11:11:13;;;;;;;8.48;6.82;;;6.80;99.90;;;;;;5070274;28;20040;-48
2024/01/31 11:13:38;;;;;;;8.50;6.50;;;6.80;99.90;;;;;;5070152;28;20197;-48
2024/01/31 11:16:05;;;;;;;7.47;6.68;;;6.80;99.90;;;;;;5070871;28;20474;-46
2024/01/31 11:18:31;;;;;;;7.00;6.30;;;6.80;99.90;;;;;;5071016;28;20064;-46
2024/01/31 11:20:58;;;;;;;8.13;6.50;;;6.80;99.90;;;;;;5070215;28;20094;-45
2024/01/31 11:23:27;;;;;;;7.50;5.90;;;6.90;99.90;;;;;;5071639;28;20055;-46
2024/01/31 11:25:54;;;;;;;7.93;7.10;;;6.80;99.90;;;;;;5069881;28;20040;-45
2024/01/31 11:28:21;;;;;;;8.75;6.97;;;6.90;99.90;;;;;;5069736;28;20036;-45
2024/01/31 11:30:52;;;;;;;9.27;6.03;;;6.90;99.90;;;;;;5070326;28;20053;-46
2024/01/31 11:33:18;;;;;;;7.20;6.60;;;6.90;99.90;;;;;;5052158;28;20179;-44
2024/01/31 11:35:45;;;;;;;10.02;7.32;;;7.00;99.90;;;;;;5069775;28;20052;-45
2024/01/31 11:38:11;;;;;;;9.18;7.57;;;7.00;99.90;;;;;;5071566;28;20033;-45
2024/01/31 11:40:37;;;;;;;8.05;7.25;;;7.10;99.90;;;;;;5071508;28;20170;-45
2024/01/31 11:43:04;;;;;;;8.75;7.50;;;7.20;99.90;;;;;;5052724;28;20434;-46
2024/01/31 11:45:30;;;;;;;8.40;7.57;;;7.30;99.90;;;;;;5068466;28;20089;-45
2024/01/31 11:47:57;;;;;;;8.57;7.60;;;7.40;99.90;;;;;;5071102;28;20119;-45
2024/01/31 11:50:25;;;;;;;8.43;7.30;;;7.40;99.90;;;;;;5064298;28;20043;-45
2024/01/31 11:52:51;;;;;;;8.32;7.25;;;7.50;99.90;;;;;;5069898;28;20417;-44
2024/01/31 11:55:25;;;;;;;9.13;7.00;;;7.60;99.90;;;;;;5070183;28;20121;-48
2024/01/31 11:57:51;;;;;;;7.72;7.03;;;7.60;99.90;;;;;;5071164;28;20734;-47
2024/01/31 12:00:18;;;;;;;7.22;6.05;;;7.60;99.90;;;;;;5068568;28;20087;-45
2024/01/31 12:02:47;;;;;;;7.55;6.90;;;7.60;99.90;;;;;;5069008;28;20550;-45
2024/01/31 12:05:13;;;;;;;7.60;6.90;;;7.60;99.90;;;;;;5070210;28;20047;-45
2024/01/31 12:07:39;;;;;;;8.52;7.05;;;7.70;99.90;;;;;;5071157;28;20127;-47
2024/01/31 12:10:08;;;;;;;8.65;7.13;;;7.70;99.90;;;;;;5067632;28;20059;-45
2024/01/31 12:12:41;;;;;;;7.97;7.07;;;7.80;99.90;;;;;;5069310;28;20033;-45
2024/01/31 12:15:12;;;;;;;8.98;6.80;;;7.80;99.90;;;;;;5069046;28;20095;-47
2024/01/31 12:17:38;;;;;;;7.72;6.93;;;7.80;99.90;;;;;;5070017;28;20044;-44
2024/01/31 12:20:08;;;;;;;7.15;6.45;;;7.90;99.90;;;;;;5068695;28;20370;-45
2024/01/31 12:22:36;;;;;;;7.75;7.05;;;7.80;99.90;;;;;;5069492;28;20038;-45
2024/01/31 12:25:02;;;;;;;8.05;7.25;;;7.90;99.90;;;;;;5069144;28;21743;-48
2024/01/31 12:27:28;;;;;;;7.75;6.45;;;7.90;99.90;;;;;;5070029;28;20391;-48
2024/01/31 12:29:53;;;;;;;7.28;6.57;;;7.80;99.90;;;;;;5069068;28;20086;-44
2024/01/31 12:32:19;;;;;;;7.43;6.63;;;7.90;99.90;;;;;;5068594;28;21733;-47
2024/01/31 12:34:45;;;;;;;7.35;6.63;;;7.90;99.90;;;;;;5050559;28;20040;-45
2024/01/31 12:37:11;;;;;;;7.43;6.78;;;7.80;99.90;;;;;;5068946;28;20115;-45
2024/01/31 12:39:36;;;;;;;7.85;7.05;;;7.80;99.90;;;;;;5069759;28;20039;-45
2024/01/31 12:42:03;;;;;;;8.30;7.05;;;7.90;99.90;;;;;;5051161;28;20417;-45
2024/01/31 12:44:29;;;;;;;8.27;7.47;;;7.90;99.90;;;;;;5068471;28;20047;-45
2024/01/31 12:46:55;;;;;;;8.32;7.53;;;7.80;99.90;;;;;;5068293;28;20374;-45
2024/01/31 12:49:21;;;;;;;10.98;8.20;;;7.80;99.90;;;;;;5069168;28;20039;-45
2024/01/31 12:51:47;;;;;;;9.57;7.82;;;7.80;99.90;;;;;;5070346;28;20029;-45